sensor_id;sensor_type;location;lat;lon;timestamp;temperature;humidity
30234;DHT22;17046;52.074;4.748;2022-07-25T00:01:43;22.20;99.90
30234;DHT22;17046;52.074;4.748;2022-07-25T00:04:08;22.10;99.90
30234;DHT22;17046;52.074;4.748;2022-07-25T00:06:36;22.10;99.90
30234;DHT22;17046;52.074;4.748;2022-07-25T00:09:02;21.90;99.90
30234;DHT22;17046;52.074;4.748;2022-07-25T00:11:27;21.90;1.00
30234;DHT22;17046;52.074;4.748;2022-07-25T00:13:53;21.80;1.00
30234;DHT22;17046;52.074;4.748;2022-07-25T00:16:18;21.60;1.00
30234;DHT22;17046;52.074;4.748;2022-07-25T00:18:44;21.60;1.00
30234;DHT22;17046;52.074;4.748;2022-07-25T00:21:09;21.50;1.00
30234;DHT22;17046;52.074;4.748;2022-07-25T00:23:35;21.40;1.00
30234;DHT22;17046;52.074;4.748;2022-07-25T00:26:01;21.40;1.00
30234;DHT22;17046;52.074;4.748;2022-07-25T00:28:26;21.40;1.00
30234;DHT22;17046;52.074;4.748;2022-07-25T00:30:52;21.40;1.00
30234;DHT22;17046;52.074;4.748;2022-07-25T00:33:18;21.40;1.00
30234;DHT22;17046;52.074;4.748;2022-07-25T00:35:43;21.30;1.00
30234;DHT22;17046;52.074;4.748;2022-07-25T00:38:09;21.30;1.00
30234;DHT22;17046;52.074;4.748;2022-07-25T00:40:35;21.30;1.00
30234;DHT22;17046;52.074;4.748;2022-07-25T00:43:00;21.20;1.00
30234;DHT22;17046;52.074;4.748;2022-07-25T00:45:26;21.20;1.00
30234;DHT22;17046;52.074;4.748;2022-07-25T00:47:52;21.20;1.00
30234;DHT22;17046;52.074;4.748;2022-07-25T00:50:17;21.20;1.00
30234;DHT22;17046;52.074;4.748;2022-07-25T00:52:44;21.20;1.00
30234;DHT22;17046;52.074;4.748;2022-07-25T00:55:10;21.20;1.00
30234;DHT22;17046;52.074;4.748;2022-07-25T00:57:36;21.10;1.00
30234;DHT22;17046;52.074;4.748;2022-07-25T01:00:05;21.10;1.00
30234;DHT22;17046;52.074;4.748;2022-07-25T01:02:31;21.00;1.00
30234;DHT22;17046;52.074;4.748;2022-07-25T01:04:57;21.00;1.00
30234;DHT22;17046;52.074;4.748;2022-07-25T01:07:24;20.90;1.00
30234;DHT22;17046;52.074;4.748;2022-07-25T01:09:50;20.90;1.00
30234;DHT22;17046;52.074;4.748;2022-07-25T01:12:16;20.90;1.00
30234;DHT22;17046;52.074;4.748;2022-07-25T01:14:41;20.90;1.00
30234;DHT22;17046;52.074;4.748;2022-07-25T01:17:07;20.90;1.00
30234;DHT22;17046;52.074;4.748;2022-07-25T01:19:32;20.80;1.00
30234;DHT22;17046;52.074;4.748;2022-07-25T01:21:58;20.90;1.00
30234;DHT22;17046;52.074;4.748;2022-07-25T01:24:24;20.90;1.00
30234;DHT22;17046;52.074;4.748;2022-07-25T01:26:49;20.90;1.00
30234;DHT22;17046;52.074;4.748;2022-07-25T01:29:15;21.00;1.00
30234;DHT22;17046;52.074;4.748;2022-07-25T01:31:40;21.00;1.00
30234;DHT22;17046;52.074;4.748;2022-07-25T01:34:06;21.00;1.00
30234;DHT22;17046;52.074;4.748;2022-07-25T01:36:31;21.00;1.00
30234;DHT22;17046;52.074;4.748;2022-07-25T01:38:57;21.00;1.00
30234;DHT22;17046;52.074;4.748;2022-07-25T01:41:22;21.00;1.00
30234;DHT22;17046;52.074;4.748;2022-07-25T01:43:48;21.00;1.00
30234;DHT22;17046;52.074;4.748;2022-07-25T01:46:14;21.00;1.00
30234;DHT22;17046;52.074;4.748;2022-07-25T01:48:40;21.00;1.00
30234;DHT22;17046;52.074;4.748;2022-07-25T01:51:05;21.00;1.00
30234;DHT22;17046;52.074;4.748;2022-07-25T01:53:31;20.90;1.00
30234;DHT22;17046;52.074;4.748;2022-07-25T01:55:57;20.90;1.00
30234;DHT22;17046;52.074;4.748;2022-07-25T01:58:22;20.90;1.00
30234;DHT22;17046;52.074;4.748;2022-07-25T02:00:48;20.80;1.00
30234;DHT22;17046;52.074;4.748;2022-07-25T02:03:13;20.80;1.00
30234;DHT22;17046;52.074;4.748;2022-07-25T02:05:54;20.70;1.00
30234;DHT22;17046;52.074;4.748;2022-07-25T02:08:20;20.70;1.00
30234;DHT22;17046;52.074;4.748;2022-07-25T02:10:46;20.70;1.00
30234;DHT22;17046;52.074;4.748;2022-07-25T02:13:11;20.70;1.00
30234;DHT22;17046;52.074;4.748;2022-07-25T02:15:37;20.70;1.00
30234;DHT22;17046;52.074;4.748;2022-07-25T02:18:03;20.70;1.00
30234;DHT22;17046;52.074;4.748;2022-07-25T02:20:28;20.70;1.00
30234;DHT22;17046;52.074;4.748;2022-07-25T02:22:54;20.60;1.00
30234;DHT22;17046;52.074;4.748;2022-07-25T02:25:19;20.60;1.00
30234;DHT22;17046;52.074;4.748;2022-07-25T02:27:45;20.60;1.00
30234;DHT22;17046;52.074;4.748;2022-07-25T02:30:11;20.60;1.00
30234;DHT22;17046;52.074;4.748;2022-07-25T02:32:36;20.60;1.00
30234;DHT22;17046;52.074;4.748;2022-07-25T02:35:03;20.60;1.00
30234;DHT22;17046;52.074;4.748;2022-07-25T02:37:29;20.50;1.00
30234;DHT22;17046;52.074;4.748;2022-07-25T02:39:54;20.50;1.00
30234;DHT22;17046;52.074;4.748;2022-07-25T02:42:20;20.50;1.00
30234;DHT22;17046;52.074;4.748;2022-07-25T02:44:45;20.40;1.00
30234;DHT22;17046;52.074;4.748;2022-07-25T02:47:11;20.40;1.00
30234;DHT22;17046;52.074;4.748;2022-07-25T02:49:36;20.50;1.00
30234;DHT22;17046;52.074;4.748;2022-07-25T02:52:02;20.40;1.00
30234;DHT22;17046;52.074;4.748;2022-07-25T02:54:27;20.40;1.00
30234;DHT22;17046;52.074;4.748;2022-07-25T02:56:53;20.40;1.00
30234;DHT22;17046;52.074;4.748;2022-07-25T02:59:18;20.40;1.00
30234;DHT22;17046;52.074;4.748;2022-07-25T03:01:44;20.30;1.00
30234;DHT22;17046;52.074;4.748;2022-07-25T03:04:09;20.40;1.00
30234;DHT22;17046;52.074;4.748;2022-07-25T03:06:35;20.30;1.00
30234;DHT22;17046;52.074;4.748;2022-07-25T03:09:01;20.30;1.00
30234;DHT22;17046;52.074;4.748;2022-07-25T03:11:26;20.40;1.00
30234;DHT22;17046;52.074;4.748;2022-07-25T03:13:52;20.30;1.00
30234;DHT22;17046;52.074;4.748;2022-07-25T03:16:17;20.30;1.00
30234;DHT22;17046;52.074;4.748;2022-07-25T03:18:43;20.40;1.00
30234;DHT22;17046;52.074;4.748;2022-07-25T03:21:08;20.40;1.00
30234;DHT22;17046;52.074;4.748;2022-07-25T03:23:34;20.40;1.00
30234;DHT22;17046;52.074;4.748;2022-07-25T03:25:59;20.40;1.00
30234;DHT22;17046;52.074;4.748;2022-07-25T03:28:25;20.50;1.00
30234;DHT22;17046;52.074;4.748;2022-07-25T03:30:51;20.50;1.00
30234;DHT22;17046;52.074;4.748;2022-07-25T03:33:17;20.50;1.00
30234;DHT22;17046;52.074;4.748;2022-07-25T03:35:42;20.60;1.00
30234;DHT22;17046;52.074;4.748;2022-07-25T03:38:09;20.60;1.00
30234;DHT22;17046;52.074;4.748;2022-07-25T03:40:35;20.50;1.00
30234;DHT22;17046;52.074;4.748;2022-07-25T03:43:01;20.50;1.00
30234;DHT22;17046;52.074;4.748;2022-07-25T03:45:26;20.50;1.00
30234;DHT22;17046;52.074;4.748;2022-07-25T03:47:52;20.50;1.00
30234;DHT22;17046;52.074;4.748;2022-07-25T03:50:17;20.50;1.00
30234;DHT22;17046;52.074;4.748;2022-07-25T03:52:43;20.60;1.00
30234;DHT22;17046;52.074;4.748;2022-07-25T03:55:09;20.60;1.00
30234;DHT22;17046;52.074;4.748;2022-07-25T03:57:35;20.60;1.00
30234;DHT22;17046;52.074;4.748;2022-07-25T04:00:02;20.60;1.00
30234;DHT22;17046;52.074;4.748;2022-07-25T04:02:28;20.60;1.00
30234;DHT22;17046;52.074;4.748;2022-07-25T04:04:53;20.60;1.00
30234;DHT22;17046;52.074;4.748;2022-07-25T04:07:19;20.60;1.00
30234;DHT22;17046;52.074;4.748;2022-07-25T04:09:44;20.60;1.00
30234;DHT22;17046;52.074;4.748;2022-07-25T04:12:10;20.60;1.00
30234;DHT22;17046;52.074;4.748;2022-07-25T04:14:35;20.60;1.00
30234;DHT22;17046;52.074;4.748;2022-07-25T04:17:01;20.50;1.00
30234;DHT22;17046;52.074;4.748;2022-07-25T04:19:26;20.50;1.00
30234;DHT22;17046;52.074;4.748;2022-07-25T04:21:52;20.50;1.00
30234;DHT22;17046;52.074;4.748;2022-07-25T04:24:17;20.60;1.00
30234;DHT22;17046;52.074;4.748;2022-07-25T04:26:43;20.60;1.00
30234;DHT22;17046;52.074;4.748;2022-07-25T04:29:08;20.60;1.00
30234;DHT22;17046;52.074;4.748;2022-07-25T04:31:34;20.70;1.00
30234;DHT22;17046;52.074;4.748;2022-07-25T04:34:00;20.70;1.00
30234;DHT22;17046;52.074;4.748;2022-07-25T04:36:25;20.70;1.00
30234;DHT22;17046;52.074;4.748;2022-07-25T04:38:51;20.80;1.00
30234;DHT22;17046;52.074;4.748;2022-07-25T04:41:17;20.80;1.00
30234;DHT22;17046;52.074;4.748;2022-07-25T04:43:43;20.80;1.00
30234;DHT22;17046;52.074;4.748;2022-07-25T04:46:08;20.80;1.00
30234;DHT22;17046;52.074;4.748;2022-07-25T04:48:34;20.80;1.00
30234;DHT22;17046;52.074;4.748;2022-07-25T04:51:00;20.90;1.00
30234;DHT22;17046;52.074;4.748;2022-07-25T04:53:25;21.00;1.00
30234;DHT22;17046;52.074;4.748;2022-07-25T04:55:51;21.00;1.00
30234;DHT22;17046;52.074;4.748;2022-07-25T04:58:17;21.10;99.90
30234;DHT22;17046;52.074;4.748;2022-07-25T05:00:42;21.20;99.90
30234;DHT22;17046;52.074;4.748;2022-07-25T05:03:08;21.30;99.90
30234;DHT22;17046;52.074;4.748;2022-07-25T05:05:34;21.40;99.90
30234;DHT22;17046;52.074;4.748;2022-07-25T05:07:59;21.50;99.90
30234;DHT22;17046;52.074;4.748;2022-07-25T05:10:27;21.60;99.90
30234;DHT22;17046;52.074;4.748;2022-07-25T05:12:53;21.80;99.90
30234;DHT22;17046;52.074;4.748;2022-07-25T05:15:18;21.90;32.20
30234;DHT22;17046;52.074;4.748;2022-07-25T05:17:44;21.90;28.50
30234;DHT22;17046;52.074;4.748;2022-07-25T05:20:10;22.00;11.90
30234;DHT22;17046;52.074;4.748;2022-07-25T05:22:36;22.00;1.00
30234;DHT22;17046;52.074;4.748;2022-07-25T05:25:05;22.10;1.00
30234;DHT22;17046;52.074;4.748;2022-07-25T05:27:31;22.10;1.00
30234;DHT22;17046;52.074;4.748;2022-07-25T05:29:57;22.40;1.00
30234;DHT22;17046;52.074;4.748;2022-07-25T05:32:22;22.50;1.00
30234;DHT22;17046;52.074;4.748;2022-07-25T05:34:48;22.50;1.00
30234;DHT22;17046;52.074;4.748;2022-07-25T05:37:13;22.50;1.00
30234;DHT22;17046;52.074;4.748;2022-07-25T05:39:39;22.60;1.00
30234;DHT22;17046;52.074;4.748;2022-07-25T05:42:06;22.80;1.00
30234;DHT22;17046;52.074;4.748;2022-07-25T05:44:32;23.00;1.00
30234;DHT22;17046;52.074;4.748;2022-07-25T05:46:57;23.10;1.00
30234;DHT22;17046;52.074;4.748;2022-07-25T05:49:23;23.40;1.00
30234;DHT22;17046;52.074;4.748;2022-07-25T05:51:49;23.60;1.00
30234;DHT22;17046;52.074;4.748;2022-07-25T05:54:14;23.60;1.00
30234;DHT22;17046;52.074;4.748;2022-07-25T05:56:40;23.60;1.00
30234;DHT22;17046;52.074;4.748;2022-07-25T05:59:05;23.80;1.00
30234;DHT22;17046;52.074;4.748;2022-07-25T06:01:31;23.90;1.00
30234;DHT22;17046;52.074;4.748;2022-07-25T06:03:56;23.90;1.00
30234;DHT22;17046;52.074;4.748;2022-07-25T06:06:22;24.10;1.00
30234;DHT22;17046;52.074;4.748;2022-07-25T06:08:47;24.20;1.00
30234;DHT22;17046;52.074;4.748;2022-07-25T06:11:13;24.30;1.00
30234;DHT22;17046;52.074;4.748;2022-07-25T06:13:38;24.20;1.00
30234;DHT22;17046;52.074;4.748;2022-07-25T06:16:04;24.20;1.00
30234;DHT22;17046;52.074;4.748;2022-07-25T06:18:30;24.00;1.00
30234;DHT22;17046;52.074;4.748;2022-07-25T06:20:55;23.90;1.00
30234;DHT22;17046;52.074;4.748;2022-07-25T06:23:21;23.60;1.00
30234;DHT22;17046;52.074;4.748;2022-07-25T06:25:47;23.40;1.00
30234;DHT22;17046;52.074;4.748;2022-07-25T06:28:13;23.10;1.00
30234;DHT22;17046;52.074;4.748;2022-07-25T06:30:40;23.10;1.00
30234;DHT22;17046;52.074;4.748;2022-07-25T06:33:06;23.10;1.00
30234;DHT22;17046;52.074;4.748;2022-07-25T06:35:31;23.00;1.00
30234;DHT22;17046;52.074;4.748;2022-07-25T06:37:57;23.10;1.00
30234;DHT22;17046;52.074;4.748;2022-07-25T06:40:22;23.10;1.00
30234;DHT22;17046;52.074;4.748;2022-07-25T06:42:48;23.10;1.00
30234;DHT22;17046;52.074;4.748;2022-07-25T06:45:14;23.10;1.00
30234;DHT22;17046;52.074;4.748;2022-07-25T06:47:41;22.90;1.00
30234;DHT22;17046;52.074;4.748;2022-07-25T06:50:09;22.80;1.00
30234;DHT22;17046;52.074;4.748;2022-07-25T06:52:35;22.70;1.00
30234;DHT22;17046;52.074;4.748;2022-07-25T06:55:04;22.60;1.00
30234;DHT22;17046;52.074;4.748;2022-07-25T06:57:31;22.60;1.00
30234;DHT22;17046;52.074;4.748;2022-07-25T06:59:57;22.50;1.00
30234;DHT22;17046;52.074;4.748;2022-07-25T07:02:22;22.40;1.00
30234;DHT22;17046;52.074;4.748;2022-07-25T07:04:48;22.40;50.10
30234;DHT22;17046;52.074;4.748;2022-07-25T07:07:14;22.50;79.20
30234;DHT22;17046;52.074;4.748;2022-07-25T07:09:41;22.50;95.50
30234;DHT22;17046;52.074;4.748;2022-07-25T07:12:07;22.50;99.90
30234;DHT22;17046;52.074;4.748;2022-07-25T07:14:33;22.70;99.90
30234;DHT22;17046;52.074;4.748;2022-07-25T07:16:59;22.80;99.90
30234;DHT22;17046;52.074;4.748;2022-07-25T07:19:24;22.90;94.00
30234;DHT22;17046;52.074;4.748;2022-07-25T07:21:50;23.00;93.60
30234;DHT22;17046;52.074;4.748;2022-07-25T07:24:16;22.90;89.40
30234;DHT22;17046;52.074;4.748;2022-07-25T07:26:42;22.90;99.90
30234;DHT22;17046;52.074;4.748;2022-07-25T07:29:08;22.80;99.90
30234;DHT22;17046;52.074;4.748;2022-07-25T07:31:34;22.80;99.90
30234;DHT22;17046;52.074;4.748;2022-07-25T07:33:59;22.70;99.90
30234;DHT22;17046;52.074;4.748;2022-07-25T07:36:25;22.50;99.90
30234;DHT22;17046;52.074;4.748;2022-07-25T07:38:51;22.50;99.90
30234;DHT22;17046;52.074;4.748;2022-07-25T07:41:17;22.50;99.90
30234;DHT22;17046;52.074;4.748;2022-07-25T07:43:42;22.60;99.90
30234;DHT22;17046;52.074;4.748;2022-07-25T07:46:08;23.00;99.90
30234;DHT22;17046;52.074;4.748;2022-07-25T07:48:34;23.20;99.90
30234;DHT22;17046;52.074;4.748;2022-07-25T07:51:00;23.20;99.90
30234;DHT22;17046;52.074;4.748;2022-07-25T07:53:27;23.20;99.90
30234;DHT22;17046;52.074;4.748;2022-07-25T07:56:12;23.20;99.90
30234;DHT22;17046;52.074;4.748;2022-07-25T07:58:38;23.30;92.60
30234;DHT22;17046;52.074;4.748;2022-07-25T08:01:04;23.60;7.60
30234;DHT22;17046;52.074;4.748;2022-07-25T08:03:29;23.90;1.00
30234;DHT22;17046;52.074;4.748;2022-07-25T08:05:55;23.80;1.00
30234;DHT22;17046;52.074;4.748;2022-07-25T08:08:20;23.80;1.00
30234;DHT22;17046;52.074;4.748;2022-07-25T08:10:47;23.60;1.00
30234;DHT22;17046;52.074;4.748;2022-07-25T08:13:15;23.50;1.00
30234;DHT22;17046;52.074;4.748;2022-07-25T08:15:42;23.60;1.00
30234;DHT22;17046;52.074;4.748;2022-07-25T08:18:09;23.60;1.00
30234;DHT22;17046;52.074;4.748;2022-07-25T08:20:34;23.70;1.00
30234;DHT22;17046;52.074;4.748;2022-07-25T08:23:00;23.90;1.00
30234;DHT22;17046;52.074;4.748;2022-07-25T08:25:26;24.00;1.00
30234;DHT22;17046;52.074;4.748;2022-07-25T08:27:52;24.00;1.00
30234;DHT22;17046;52.074;4.748;2022-07-25T08:30:17;24.00;1.00
30234;DHT22;17046;52.074;4.748;2022-07-25T08:32:51;23.90;1.00
30234;DHT22;17046;52.074;4.748;2022-07-25T08:35:18;23.90;1.00
30234;DHT22;17046;52.074;4.748;2022-07-25T08:37:45;24.00;1.00
30234;DHT22;17046;52.074;4.748;2022-07-25T08:40:12;23.90;1.00
30234;DHT22;17046;52.074;4.748;2022-07-25T08:42:38;23.80;1.00
30234;DHT22;17046;52.074;4.748;2022-07-25T08:45:06;23.90;1.00
30234;DHT22;17046;52.074;4.748;2022-07-25T08:47:34;23.90;1.00
30234;DHT22;17046;52.074;4.748;2022-07-25T08:50:05;24.00;99.90
30234;DHT22;17046;52.074;4.748;2022-07-25T08:52:32;24.10;1.00
30234;DHT22;17046;52.074;4.748;2022-07-25T08:55:01;24.30;1.00
30234;DHT22;17046;52.074;4.748;2022-07-25T08:57:27;24.70;1.00
30234;DHT22;17046;52.074;4.748;2022-07-25T08:59:56;24.90;99.90
30234;DHT22;17046;52.074;4.748;2022-07-25T09:02:21;25.00;99.90
30234;DHT22;17046;52.074;4.748;2022-07-25T09:04:47;25.10;99.90
30234;DHT22;17046;52.074;4.748;2022-07-25T09:07:13;25.50;99.90
30234;DHT22;17046;52.074;4.748;2022-07-25T09:09:39;25.70;99.90
30234;DHT22;17046;52.074;4.748;2022-07-25T09:12:05;25.70;99.90
30234;DHT22;17046;52.074;4.748;2022-07-25T09:14:40;25.70;99.90
30234;DHT22;17046;52.074;4.748;2022-07-25T09:17:06;24.90;99.90
30234;DHT22;17046;52.074;4.748;2022-07-25T09:19:32;25.00;99.90
30234;DHT22;17046;52.074;4.748;2022-07-25T09:22:05;25.00;99.90
30234;DHT22;17046;52.074;4.748;2022-07-25T09:24:32;24.90;99.90
30234;DHT22;17046;52.074;4.748;2022-07-25T09:27:00;25.00;99.90
30234;DHT22;17046;52.074;4.748;2022-07-25T09:29:27;25.10;99.90
30234;DHT22;17046;52.074;4.748;2022-07-25T09:31:54;25.10;99.90
30234;DHT22;17046;52.074;4.748;2022-07-25T09:34:31;24.90;99.90
30234;DHT22;17046;52.074;4.748;2022-07-25T09:36:59;24.70;99.90
30234;DHT22;17046;52.074;4.748;2022-07-25T09:42:28;24.50;99.90
30234;DHT22;17046;52.074;4.748;2022-07-25T09:45:04;24.40;99.90
30234;DHT22;17046;52.074;4.748;2022-07-25T09:47:31;24.10;99.90
30234;DHT22;17046;52.074;4.748;2022-07-25T09:49:58;23.90;99.90
30234;DHT22;17046;52.074;4.748;2022-07-25T09:52:23;24.00;99.90
30234;DHT22;17046;52.074;4.748;2022-07-25T09:54:49;23.90;99.90
30234;DHT22;17046;52.074;4.748;2022-07-25T09:57:15;23.90;99.90
30234;DHT22;17046;52.074;4.748;2022-07-25T09:59:41;24.00;99.90
30234;DHT22;17046;52.074;4.748;2022-07-25T10:02:32;24.20;99.90
30234;DHT22;17046;52.074;4.748;2022-07-25T10:05:17;24.10;99.90
30234;DHT22;17046;52.074;4.748;2022-07-25T10:07:47;24.30;99.90
30234;DHT22;17046;52.074;4.748;2022-07-25T10:10:30;24.60;99.90
30234;DHT22;17046;52.074;4.748;2022-07-25T10:13:04;24.70;99.90
30234;DHT22;17046;52.074;4.748;2022-07-25T10:18:05;24.70;99.90
30234;DHT22;17046;52.074;4.748;2022-07-25T10:20:33;24.50;99.90
30234;DHT22;17046;52.074;4.748;2022-07-25T10:22:59;24.60;99.90
30234;DHT22;17046;52.074;4.748;2022-07-25T10:25:25;24.80;99.90
30234;DHT22;17046;52.074;4.748;2022-07-25T10:27:58;24.70;99.90
30234;DHT22;17046;52.074;4.748;2022-07-25T10:30:43;24.80;99.90
30234;DHT22;17046;52.074;4.748;2022-07-25T10:33:14;24.60;99.90
30234;DHT22;17046;52.074;4.748;2022-07-25T10:35:42;24.40;99.90
30234;DHT22;17046;52.074;4.748;2022-07-25T10:38:08;24.40;99.90
30234;DHT22;17046;52.074;4.748;2022-07-25T10:45:51;24.10;99.90
30234;DHT22;17046;52.074;4.748;2022-07-25T10:48:28;23.70;99.90
30234;DHT22;17046;52.074;4.748;2022-07-25T10:51:02;23.50;99.90
30234;DHT22;17046;52.074;4.748;2022-07-25T10:56:12;23.60;99.90
30234;DHT22;17046;52.074;4.748;2022-07-25T10:58:53;23.70;99.90
30234;DHT22;17046;52.074;4.748;2022-07-25T11:03:55;23.80;99.90
30234;DHT22;17046;52.074;4.748;2022-07-25T11:06:36;23.60;99.90
30234;DHT22;17046;52.074;4.748;2022-07-25T11:09:12;23.60;99.90
30234;DHT22;17046;52.074;4.748;2022-07-25T11:11:39;23.60;99.90
30234;DHT22;17046;52.074;4.748;2022-07-25T11:14:16;23.70;99.90
30234;DHT22;17046;52.074;4.748;2022-07-25T11:16:46;23.90;99.90
30234;DHT22;17046;52.074;4.748;2022-07-25T11:19:22;24.30;99.90
30234;DHT22;17046;52.074;4.748;2022-07-25T11:21:55;24.10;99.90
30234;DHT22;17046;52.074;4.748;2022-07-25T11:24:32;23.70;99.90
30234;DHT22;17046;52.074;4.748;2022-07-25T11:26:58;23.50;99.90
30234;DHT22;17046;52.074;4.748;2022-07-25T11:29:24;23.40;99.90
30234;DHT22;17046;52.074;4.748;2022-07-25T11:31:55;23.40;99.90
30234;DHT22;17046;52.074;4.748;2022-07-25T11:34:23;23.60;99.90
30234;DHT22;17046;52.074;4.748;2022-07-25T11:36:50;23.50;99.90
30234;DHT22;17046;52.074;4.748;2022-07-25T11:39:16;23.30;99.90
30234;DHT22;17046;52.074;4.748;2022-07-25T11:41:42;23.30;99.90
30234;DHT22;17046;52.074;4.748;2022-07-25T11:44:08;23.20;99.90
30234;DHT22;17046;52.074;4.748;2022-07-25T11:46:41;23.40;99.90
30234;DHT22;17046;52.074;4.748;2022-07-25T11:49:08;23.60;99.90
30234;DHT22;17046;52.074;4.748;2022-07-25T11:51:37;23.80;99.90
30234;DHT22;17046;52.074;4.748;2022-07-25T11:54:10;24.00;99.90
30234;DHT22;17046;52.074;4.748;2022-07-25T11:56:38;24.30;99.90
30234;DHT22;17046;52.074;4.748;2022-07-25T11:59:04;24.50;99.90
30234;DHT22;17046;52.074;4.748;2022-07-25T12:01:40;24.50;99.90
30234;DHT22;17046;52.074;4.748;2022-07-25T12:04:17;24.30;99.90
30234;DHT22;17046;52.074;4.748;2022-07-25T12:06:45;24.20;99.90
30234;DHT22;17046;52.074;4.748;2022-07-25T12:11:38;23.70;99.90
30234;DHT22;17046;52.074;4.748;2022-07-25T12:14:04;24.00;99.90
30234;DHT22;17046;52.074;4.748;2022-07-25T12:16:31;24.10;99.90
30234;DHT22;17046;52.074;4.748;2022-07-25T12:18:57;24.30;99.90
30234;DHT22;17046;52.074;4.748;2022-07-25T12:21:22;24.40;99.90
30234;DHT22;17046;52.074;4.748;2022-07-25T12:23:48;24.40;99.90
30234;DHT22;17046;52.074;4.748;2022-07-25T12:26:14;24.10;99.90
30234;DHT22;17046;52.074;4.748;2022-07-25T12:28:39;24.00;99.90
30234;DHT22;17046;52.074;4.748;2022-07-25T12:31:06;23.90;99.90
30234;DHT22;17046;52.074;4.748;2022-07-25T12:33:32;24.10;99.90
30234;DHT22;17046;52.074;4.748;2022-07-25T12:35:59;24.20;99.90
30234;DHT22;17046;52.074;4.748;2022-07-25T12:38:25;24.40;99.90
30234;DHT22;17046;52.074;4.748;2022-07-25T12:40:51;24.50;99.90
30234;DHT22;17046;52.074;4.748;2022-07-25T12:43:17;24.60;99.90
30234;DHT22;17046;52.074;4.748;2022-07-25T12:45:42;24.50;99.90
30234;DHT22;17046;52.074;4.748;2022-07-25T12:48:09;24.20;99.90
30234;DHT22;17046;52.074;4.748;2022-07-25T12:50:34;24.40;99.90
30234;DHT22;17046;52.074;4.748;2022-07-25T12:53:00;24.40;99.90
30234;DHT22;17046;52.074;4.748;2022-07-25T12:55:26;24.60;99.90
30234;DHT22;17046;52.074;4.748;2022-07-25T12:57:52;24.60;99.90
30234;DHT22;17046;52.074;4.748;2022-07-25T13:00:20;24.80;99.90
30234;DHT22;17046;52.074;4.748;2022-07-25T13:02:48;24.50;99.90
30234;DHT22;17046;52.074;4.748;2022-07-25T13:05:16;24.60;99.90
30234;DHT22;17046;52.074;4.748;2022-07-25T13:07:41;24.70;99.90
30234;DHT22;17046;52.074;4.748;2022-07-25T13:10:08;24.70;99.90
30234;DHT22;17046;52.074;4.748;2022-07-25T13:12:33;24.70;99.90
30234;DHT22;17046;52.074;4.748;2022-07-25T13:14:59;24.50;99.90
30234;DHT22;17046;52.074;4.748;2022-07-25T13:17:25;24.20;99.90
30234;DHT22;17046;52.074;4.748;2022-07-25T13:19:51;24.20;99.90
30234;DHT22;17046;52.074;4.748;2022-07-25T13:22:16;24.10;99.90
30234;DHT22;17046;52.074;4.748;2022-07-25T13:24:42;24.40;99.90
30234;DHT22;17046;52.074;4.748;2022-07-25T13:27:08;24.30;99.90
30234;DHT22;17046;52.074;4.748;2022-07-25T13:29:34;24.40;99.90
30234;DHT22;17046;52.074;4.748;2022-07-25T13:32:00;24.40;99.90
30234;DHT22;17046;52.074;4.748;2022-07-25T13:34:26;24.40;99.90
30234;DHT22;17046;52.074;4.748;2022-07-25T13:36:51;24.50;99.90
30234;DHT22;17046;52.074;4.748;2022-07-25T13:39:17;24.40;99.90
30234;DHT22;17046;52.074;4.748;2022-07-25T13:41:46;24.50;99.90
30234;DHT22;17046;52.074;4.748;2022-07-25T13:44:12;24.60;99.90
30234;DHT22;17046;52.074;4.748;2022-07-25T13:46:39;24.60;99.90
30234;DHT22;17046;52.074;4.748;2022-07-25T13:49:05;24.50;99.90
30234;DHT22;17046;52.074;4.748;2022-07-25T13:51:31;24.40;99.90
30234;DHT22;17046;52.074;4.748;2022-07-25T13:53:56;24.10;99.90
30234;DHT22;17046;52.074;4.748;2022-07-25T13:56:22;24.20;99.90
30234;DHT22;17046;52.074;4.748;2022-07-25T13:58:47;24.40;99.90
30234;DHT22;17046;52.074;4.748;2022-07-25T14:01:13;24.50;99.90
30234;DHT22;17046;52.074;4.748;2022-07-25T14:03:38;24.50;99.90
30234;DHT22;17046;52.074;4.748;2022-07-25T14:06:05;24.30;99.90
30234;DHT22;17046;52.074;4.748;2022-07-25T14:08:33;24.30;99.90
30234;DHT22;17046;52.074;4.748;2022-07-25T14:10:58;24.30;99.90
30234;DHT22;17046;52.074;4.748;2022-07-25T14:13:24;24.40;99.90
30234;DHT22;17046;52.074;4.748;2022-07-25T14:15:49;24.20;99.90
30234;DHT22;17046;52.074;4.748;2022-07-25T14:18:15;24.00;99.90
30234;DHT22;17046;52.074;4.748;2022-07-25T14:20:41;24.00;99.90
30234;DHT22;17046;52.074;4.748;2022-07-25T14:23:06;24.20;99.90
30234;DHT22;17046;52.074;4.748;2022-07-25T14:25:32;24.20;99.90
30234;DHT22;17046;52.074;4.748;2022-07-25T14:27:58;24.10;99.90
30234;DHT22;17046;52.074;4.748;2022-07-25T14:30:24;24.10;99.90
30234;DHT22;17046;52.074;4.748;2022-07-25T14:32:50;24.20;99.90
30234;DHT22;17046;52.074;4.748;2022-07-25T14:35:15;24.10;99.90
30234;DHT22;17046;52.074;4.748;2022-07-25T14:37:41;24.30;99.90
30234;DHT22;17046;52.074;4.748;2022-07-25T14:40:07;24.30;99.90
30234;DHT22;17046;52.074;4.748;2022-07-25T14:42:35;24.20;99.90
30234;DHT22;17046;52.074;4.748;2022-07-25T14:45:01;24.10;99.90
30234;DHT22;17046;52.074;4.748;2022-07-25T14:47:26;24.00;99.90
30234;DHT22;17046;52.074;4.748;2022-07-25T14:49:52;24.00;99.90
30234;DHT22;17046;52.074;4.748;2022-07-25T14:52:17;23.90;99.90
30234;DHT22;17046;52.074;4.748;2022-07-25T14:54:43;24.00;99.90
30234;DHT22;17046;52.074;4.748;2022-07-25T14:57:09;24.00;99.90
30234;DHT22;17046;52.074;4.748;2022-07-25T14:59:35;24.10;99.90
30234;DHT22;17046;52.074;4.748;2022-07-25T15:02:00;24.10;99.90
30234;DHT22;17046;52.074;4.748;2022-07-25T15:04:26;24.00;99.90
30234;DHT22;17046;52.074;4.748;2022-07-25T15:06:52;24.30;99.90
30234;DHT22;17046;52.074;4.748;2022-07-25T15:09:18;24.40;99.90
30234;DHT22;17046;52.074;4.748;2022-07-25T15:11:44;24.40;99.90
30234;DHT22;17046;52.074;4.748;2022-07-25T15:14:10;24.30;99.90
30234;DHT22;17046;52.074;4.748;2022-07-25T15:16:37;24.30;99.90
30234;DHT22;17046;52.074;4.748;2022-07-25T15:19:03;24.20;99.90
30234;DHT22;17046;52.074;4.748;2022-07-25T15:21:29;24.30;99.90
30234;DHT22;17046;52.074;4.748;2022-07-25T15:23:55;24.50;99.90
30234;DHT22;17046;52.074;4.748;2022-07-25T15:26:21;24.50;99.90
30234;DHT22;17046;52.074;4.748;2022-07-25T15:28:47;24.30;99.90
30234;DHT22;17046;52.074;4.748;2022-07-25T15:31:13;24.10;99.90
30234;DHT22;17046;52.074;4.748;2022-07-25T15:33:39;23.90;99.90
30234;DHT22;17046;52.074;4.748;2022-07-25T15:36:04;23.80;99.90
30234;DHT22;17046;52.074;4.748;2022-07-25T15:38:30;23.80;99.90
30234;DHT22;17046;52.074;4.748;2022-07-25T15:40:56;23.80;99.90
30234;DHT22;17046;52.074;4.748;2022-07-25T15:43:23;23.90;99.90
30234;DHT22;17046;52.074;4.748;2022-07-25T15:45:48;23.80;99.90
30234;DHT22;17046;52.074;4.748;2022-07-25T15:48:15;23.90;99.90
30234;DHT22;17046;52.074;4.748;2022-07-25T15:50:43;23.80;99.90
30234;DHT22;17046;52.074;4.748;2022-07-25T15:53:09;23.80;99.90